createdAt,value
2018-06-19T11:08:59.315Z,31.10
2018-06-19T11:11:07.756Z,31.10
2018-06-19T11:13:13.765Z,31.10
2018-06-19T11:15:34.392Z,31.00
2018-06-19T11:52:21.426Z,30.70
2018-06-19T11:54:36.998Z,30.60
2018-06-19T11:56:46.862Z,30.70
2018-06-19T11:58:53.501Z,30.50
2018-06-19T12:00:59.311Z,30.40
2018-06-19T12:03:05.433Z,30.40
2018-06-19T12:05:18.591Z,30.50
2018-06-19T12:09:30.167Z,30.20
2018-06-19T12:11:34.408Z,30.20
2018-06-19T12:13:44.153Z,30.00
2018-06-19T12:34:30.357Z,28.60
2018-06-19T12:36:37.522Z,28.50
2018-06-19T12:38:52.422Z,28.60
2018-06-19T13:37:44.513Z,28.80
2018-06-19T13:44:19.775Z,28.50
2018-06-19T13:49:10.451Z,28.30
2018-06-19T13:51:43.618Z,28.40
2018-06-19T14:16:51.693Z,29.60
2018-06-19T14:19:07.849Z,29.70
2018-06-19T14:23:21.808Z,29.80
2018-06-19T14:25:26.951Z,29.80
2018-06-19T14:27:44.363Z,29.80
2018-06-19T14:29:51.639Z,29.80
2018-06-19T14:31:58.860Z,29.90
2018-06-19T14:34:09.255Z,30.20
2018-06-19T14:36:14.491Z,30.50
2018-06-19T14:40:32.835Z,30.80
2018-06-19T14:42:38.663Z,30.80
2018-06-19T14:44:59.573Z,30.80
2018-06-19T14:54:28.632Z,30.70
2018-06-19T14:56:46.646Z,30.90
2018-06-19T15:03:47.116Z,31.60
2018-06-19T15:08:08.663Z,31.70
2018-06-19T15:10:14.788Z,31.70
2018-06-19T15:12:21.591Z,31.70
2018-06-19T15:14:28.448Z,31.70
2018-06-19T15:16:39.665Z,31.30
2018-06-19T15:18:56.752Z,31.00
2018-06-19T15:21:01.175Z,31.20
2018-06-19T15:23:05.760Z,31.20
2018-06-19T15:25:12.348Z,31.30
2018-06-19T15:27:18.045Z,31.30
2018-06-19T15:29:24.111Z,31.30
2018-06-19T15:31:36.263Z,31.20
2018-06-19T15:33:42.400Z,31.20
2018-06-19T15:35:46.977Z,31.00
2018-06-19T15:38:07.295Z,30.70
2018-06-19T15:40:11.896Z,30.50
2018-06-19T15:42:18.992Z,30.40
2018-06-19T15:44:26.178Z,30.30
2018-06-19T15:46:39.712Z,30.40
2018-06-19T15:48:46.773Z,30.40
2018-06-19T15:50:53.263Z,30.40
2018-06-19T15:53:07.217Z,30.30
2018-06-19T15:55:15.074Z,30.10
2018-06-19T15:57:27.213Z,29.90
2018-06-19T15:59:35.981Z,29.90
2018-06-19T16:11:46.790Z,29.90
2018-06-19T16:31:06.742Z,30.40
2018-06-19T16:37:08.711Z,30.20
2018-06-19T16:44:16.596Z,29.90
2018-06-19T16:52:05.308Z,29.70
2018-06-19T16:54:18.846Z,29.70
2018-06-19T16:58:54.104Z,29.80
2018-06-19T17:01:16.677Z,29.80
2018-06-19T17:03:25.328Z,29.50
2018-06-19T17:27:30.080Z,29.90
2018-06-19T17:34:33.202Z,30.10
2018-06-19T17:42:04.355Z,30.00
2018-06-19T17:51:26.272Z,30.20
2018-06-19T17:53:42.480Z,30.20
2018-06-19T17:55:49.733Z,30.20
2018-06-19T17:57:55.192Z,30.20
2018-06-19T18:02:27.797Z,31.10
2018-06-19T18:04:35.014Z,31.90
2018-06-19T18:06:42.567Z,32.40
2018-06-19T18:08:48.807Z,32.90
2018-06-19T18:10:53.745Z,32.60
2018-06-19T18:12:59.251Z,32.00
2018-06-19T18:15:07.010Z,31.40
2018-06-19T18:17:12.750Z,30.70
2018-06-19T18:19:20.342Z,30.10
2018-06-19T18:21:26.110Z,29.80
2018-06-19T18:23:30.495Z,29.30
2018-06-19T18:25:34.648Z,29.10
2018-06-19T18:27:41.712Z,28.80
2018-06-19T18:29:47.410Z,28.70
2018-06-19T18:31:58.346Z,28.60
2018-06-19T18:34:05.499Z,28.60
2018-06-19T18:36:11.727Z,28.40
2018-06-19T23:15:18.804Z,23.40
2018-06-19T23:17:24.313Z,23.50
2018-06-19T23:19:29.291Z,23.50
2018-06-19T23:21:35.205Z,23.50
2018-06-19T23:23:39.217Z,23.40
2018-06-19T23:25:43.149Z,23.40
2018-06-19T23:27:47.405Z,23.40
2018-06-19T23:29:51.262Z,23.60
2018-06-19T23:34:08.326Z,23.70
2018-06-19T23:36:13.175Z,23.70
2018-06-19T23:38:20.645Z,23.60
2018-06-19T23:40:25.613Z,23.60
2018-06-19T23:42:32.816Z,23.60
2018-06-19T23:44:36.694Z,23.50
2018-06-19T23:46:41.941Z,23.40
2018-06-19T23:48:46.927Z,23.40
2018-06-19T23:50:50.762Z,23.40
2018-06-19T23:52:56.645Z,23.40
2018-06-19T23:55:02.349Z,23.30
2018-06-19T23:57:06.273Z,23.30
2018-06-19T23:59:10.520Z,23.40
